EWG1GD LFKB-EDDL
Flight info
| Callsign | EWG1GD |
|---|---|
| Flight time | 1h 28m |
| Altitude | 38000 |
| Route | MEGER DCT ERTEV DCT PUNSA DCT DEVDI DCT SUTAL N852 DIK N853 ELDAR DCT BIKMU BIKMU1A |
| Aircraft | A319/M-SDE3FGHIRWY/LB1 |
Departure
| Time | 2026-05-07 11:31 |
|---|---|
| Airport | Bastia-Poretta International airport (LFKB) |
Arrival
| Time | 2026-05-07 12:59 |
|---|---|
| Airport | Düsseldorf Airport (EDDL) |
| Time | Latitude | Longitude | Altitude | Speed | Heading |
|---|---|---|---|---|---|
| 2026-05-07 11:04 | 42.54830 | 9.48164 | 36 ft | 0 kts | 252° |
| 2026-05-07 11:25 | 42.54831 | 9.48161 | 35 ft | 0 kts | 266° |
| 2026-05-07 11:25 | 42.54834 | 9.48159 | 35 ft | 1 kts | 298° |
| 2026-05-07 11:25 | 42.54839 | 9.48161 | 34 ft | 1 kts | 3° |
| 2026-05-07 11:25 | 42.54846 | 9.48197 | 34 ft | 8 kts | 80° |
| 2026-05-07 11:26 | 42.54886 | 9.48253 | 35 ft | 11 kts | 357° |
| 2026-05-07 11:26 | 42.54969 | 9.48235 | 35 ft | 13 kts | 358° |
| 2026-05-07 11:26 | 42.55060 | 9.48204 | 35 ft | 11 kts | 342° |
| 2026-05-07 11:26 | 42.55140 | 9.48172 | 33 ft | 13 kts | 342° |
| 2026-05-07 11:27 | 42.55236 | 9.48131 | 35 ft | 16 kts | 343° |
| 2026-05-07 11:27 | 42.55346 | 9.48085 | 34 ft | 18 kts | 342° |
| 2026-05-07 11:27 | 42.55472 | 9.48032 | 33 ft | 20 kts | 343° |
| 2026-05-07 11:27 | 42.55618 | 9.47971 | 30 ft | 24 kts | 343° |
| 2026-05-07 11:28 | 42.55788 | 9.47900 | 28 ft | 28 kts | 342° |
| 2026-05-07 11:28 | 42.55907 | 9.47865 | 25 ft | 12 kts | 12° |
| 2026-05-07 11:28 | 42.55950 | 9.47944 | 26 ft | 12 kts | 84° |
| 2026-05-07 11:28 | 42.55990 | 9.48045 | 24 ft | 14 kts | 26° |
| 2026-05-07 11:29 | 42.56096 | 9.48023 | 25 ft | 17 kts | 345° |
| 2026-05-07 11:29 | 42.56208 | 9.47977 | 23 ft | 10 kts | 342° |
| 2026-05-07 11:29 | 42.56260 | 9.47917 | 24 ft | 9 kts | 313° |
| 2026-05-07 11:29 | 42.56302 | 9.47885 | 22 ft | 7 kts | 11° |
| 2026-05-07 11:30 | 42.56313 | 9.47932 | 22 ft | 5 kts | 146° |
| 2026-05-07 11:30 | 42.56268 | 9.47953 | 22 ft | 11 kts | 163° |
| 2026-05-07 11:30 | 42.56021 | 9.48058 | 28 ft | 67 kts | 162° |
| 2026-05-07 11:30 | 42.55383 | 9.48324 | 36 ft | 122 kts | 163° |
| 2026-05-07 11:31 | 42.54447 | 9.48712 | 271 ft | 148 kts | 160° |
| 2026-05-07 11:31 | 42.53465 | 9.49096 | 938 ft | 148 kts | 162° |
| 2026-05-07 11:31 | 42.52446 | 9.49501 | 1438 ft | 159 kts | 162° |
| 2026-05-07 11:31 | 42.51383 | 9.50103 | 1798 ft | 177 kts | 141° |
| 2026-05-07 11:32 | 42.50987 | 9.53513 | 2527 ft | 226 kts | 59° |
| 2026-05-07 11:32 | 42.52055 | 9.55230 | 3072 ft | 251 kts | 46° |
| 2026-05-07 11:32 | 42.53344 | 9.56914 | 3920 ft | 261 kts | 42° |
| 2026-05-07 11:33 | 42.54907 | 9.58171 | 4889 ft | 266 kts | 12° |
| 2026-05-07 11:33 | 42.56721 | 9.58040 | 5844 ft | 269 kts | 338° |
| 2026-05-07 11:33 | 42.58263 | 9.56587 | 6641 ft | 274 kts | 313° |
| 2026-05-07 11:33 | 42.59446 | 9.54585 | 7504 ft | 273 kts | 303° |
| 2026-05-07 11:34 | 42.60532 | 9.52445 | 8483 ft | 276 kts | 302° |
| 2026-05-07 11:34 | 42.61657 | 9.50294 | 9400 ft | 281 kts | 304° |
| 2026-05-07 11:34 | 42.62867 | 9.48164 | 10262 ft | 288 kts | 306° |
| 2026-05-07 11:34 | 42.64197 | 9.45984 | 10616 ft | 311 kts | 308° |
| 2026-05-07 11:35 | 42.65654 | 9.43730 | 11193 ft | 322 kts | 310° |
| 2026-05-07 11:35 | 42.67162 | 9.41482 | 11954 ft | 327 kts | 310° |
| 2026-05-07 11:35 | 42.68718 | 9.39204 | 12736 ft | 331 kts | 311° |
| 2026-05-07 11:35 | 42.70309 | 9.36892 | 13537 ft | 334 kts | 311° |
| 2026-05-07 11:36 | 42.71946 | 9.34659 | 14263 ft | 340 kts | 317° |
| 2026-05-07 11:36 | 42.73909 | 9.32816 | 14960 ft | 346 kts | 328° |
| 2026-05-07 11:36 | 42.76046 | 9.31262 | 15657 ft | 349 kts | 329° |
| 2026-05-07 11:36 | 42.78202 | 9.29687 | 16350 ft | 352 kts | 328° |
| 2026-05-07 11:37 | 42.80375 | 9.28089 | 17031 ft | 355 kts | 328° |
| 2026-05-07 11:37 | 42.82534 | 9.26494 | 17712 ft | 359 kts | 327° |
| 2026-05-07 11:37 | 42.84750 | 9.24852 | 18382 ft | 362 kts | 327° |
| 2026-05-07 11:37 | 42.86952 | 9.23218 | 18976 ft | 365 kts | 328° |
| 2026-05-07 11:38 | 42.89307 | 9.21810 | 19557 ft | 373 kts | 338° |
| 2026-05-07 11:38 | 42.91875 | 9.21029 | 20145 ft | 382 kts | 349° |
| 2026-05-07 11:38 | 42.94526 | 9.20786 | 20720 ft | 387 kts | 353° |
| 2026-05-07 11:38 | 42.97241 | 9.20577 | 21288 ft | 391 kts | 352° |
| 2026-05-07 11:39 | 42.99968 | 9.20361 | 21848 ft | 395 kts | 352° |
| 2026-05-07 11:39 | 43.02729 | 9.20136 | 22395 ft | 398 kts | 352° |
| 2026-05-07 11:39 | 43.05514 | 9.19907 | 22946 ft | 402 kts | 351° |
| 2026-05-07 11:39 | 43.08315 | 9.19673 | 23519 ft | 405 kts | 351° |
| 2026-05-07 11:40 | 43.11147 | 9.19438 | 23992 ft | 409 kts | 351° |
| 2026-05-07 11:40 | 43.13974 | 9.19201 | 24447 ft | 412 kts | 351° |
| 2026-05-07 11:40 | 43.16850 | 9.18956 | 24909 ft | 414 kts | 351° |
| 2026-05-07 11:40 | 43.19735 | 9.18709 | 25365 ft | 417 kts | 350° |
| 2026-05-07 11:41 | 43.22649 | 9.18461 | 25819 ft | 419 kts | 350° |
| 2026-05-07 11:41 | 43.25542 | 9.18220 | 26265 ft | 422 kts | 350° |
| 2026-05-07 11:41 | 43.28490 | 9.17975 | 26750 ft | 424 kts | 350° |
| 2026-05-07 11:41 | 43.31400 | 9.17569 | 27189 ft | 421 kts | 343° |
| 2026-05-07 11:42 | 43.34215 | 9.16570 | 27622 ft | 415 kts | 334° |
| 2026-05-07 11:42 | 43.36854 | 9.14993 | 28058 ft | 410 kts | 326° |
| 2026-05-07 11:42 | 43.39406 | 9.13176 | 28499 ft | 413 kts | 326° |
| 2026-05-07 11:42 | 43.41978 | 9.11355 | 28947 ft | 415 kts | 326° |
| 2026-05-07 11:43 | 43.44520 | 9.09558 | 29366 ft | 417 kts | 326° |
| 2026-05-07 11:43 | 43.47113 | 9.07723 | 29833 ft | 420 kts | 326° |
| 2026-05-07 11:43 | 43.49715 | 9.05881 | 30244 ft | 421 kts | 326° |
| 2026-05-07 11:43 | 43.52337 | 9.04023 | 30590 ft | 423 kts | 326° |
| 2026-05-07 11:44 | 43.54967 | 9.02157 | 30926 ft | 426 kts | 326° |
| 2026-05-07 11:44 | 43.57594 | 9.00286 | 31249 ft | 428 kts | 325° |
| 2026-05-07 11:44 | 43.60260 | 8.98386 | 31560 ft | 430 kts | 325° |
| 2026-05-07 11:44 | 43.62913 | 8.96534 | 31930 ft | 434 kts | 328° |
| 2026-05-07 11:45 | 43.65792 | 8.95105 | 32371 ft | 441 kts | 337° |
| 2026-05-07 11:45 | 43.68769 | 8.94026 | 32838 ft | 441 kts | 338° |
| 2026-05-07 11:45 | 43.71741 | 8.92949 | 33314 ft | 440 kts | 337° |
| 2026-05-07 11:45 | 43.74658 | 8.91886 | 33759 ft | 439 kts | 337° |
| 2026-05-07 11:46 | 43.77620 | 8.90799 | 34183 ft | 438 kts | 337° |
| 2026-05-07 11:46 | 43.80565 | 8.89717 | 34538 ft | 438 kts | 337° |
| 2026-05-07 11:46 | 43.83528 | 8.88628 | 34895 ft | 438 kts | 337° |
| 2026-05-07 11:46 | 43.86438 | 8.87556 | 35230 ft | 438 kts | 337° |
| 2026-05-07 11:47 | 43.89396 | 8.86460 | 35590 ft | 437 kts | 337° |
| 2026-05-07 11:47 | 43.92345 | 8.85362 | 35936 ft | 437 kts | 338° |
| 2026-05-07 11:47 | 43.95261 | 8.84277 | 36255 ft | 437 kts | 338° |
| 2026-05-07 11:47 | 43.98206 | 8.83187 | 36559 ft | 437 kts | 338° |
| 2026-05-07 11:48 | 44.01120 | 8.82110 | 36851 ft | 437 kts | 338° |
| 2026-05-07 11:48 | 44.04084 | 8.81013 | 37142 ft | 437 kts | 338° |
| 2026-05-07 11:48 | 44.07021 | 8.79925 | 37435 ft | 437 kts | 338° |
| 2026-05-07 11:48 | 44.09930 | 8.78845 | 37721 ft | 437 kts | 339° |
| 2026-05-07 11:49 | 44.12879 | 8.77746 | 37951 ft | 438 kts | 339° |
| 2026-05-07 11:49 | 44.18786 | 8.75542 | 38002 ft | 440 kts | 339° |
| 2026-05-07 11:50 | 44.24727 | 8.73329 | 38004 ft | 440 kts | 339° |
| 2026-05-07 11:50 | 44.30608 | 8.71125 | 38032 ft | 440 kts | 339° |
| 2026-05-07 11:51 | 44.36525 | 8.68912 | 38027 ft | 440 kts | 339° |
| 2026-05-07 11:51 | 44.42417 | 8.66703 | 38029 ft | 439 kts | 339° |
| 2026-05-07 11:52 | 44.48345 | 8.64441 | 38118 ft | 439 kts | 338° |
| 2026-05-07 11:52 | 44.54219 | 8.62150 | 38294 ft | 439 kts | 338° |
| 2026-05-07 11:53 | 44.60077 | 8.59904 | 38337 ft | 439 kts | 339° |
| 2026-05-07 11:53 | 44.66005 | 8.57761 | 37981 ft | 436 kts | 339° |
| 2026-05-07 11:54 | 44.71883 | 8.55581 | 38001 ft | 438 kts | 339° |
| 2026-05-07 11:54 | 44.77761 | 8.53329 | 38006 ft | 440 kts | 339° |
| 2026-05-07 11:55 | 44.83659 | 8.51067 | 38001 ft | 440 kts | 339° |
| 2026-05-07 11:55 | 44.89588 | 8.48809 | 38009 ft | 440 kts | 339° |
| 2026-05-07 11:56 | 44.95480 | 8.46553 | 38002 ft | 439 kts | 339° |
| 2026-05-07 11:56 | 45.01377 | 8.44289 | 38003 ft | 440 kts | 339° |
| 2026-05-07 11:57 | 45.07289 | 8.42017 | 38007 ft | 440 kts | 339° |
| 2026-05-07 11:57 | 45.13175 | 8.39740 | 38018 ft | 440 kts | 339° |
| 2026-05-07 11:58 | 45.19089 | 8.37443 | 38012 ft | 440 kts | 339° |
| 2026-05-07 11:58 | 45.24979 | 8.35166 | 38013 ft | 440 kts | 339° |
| 2026-05-07 11:59 | 45.30906 | 8.32880 | 38023 ft | 440 kts | 339° |
| 2026-05-07 11:59 | 45.36785 | 8.30604 | 38013 ft | 440 kts | 339° |
| 2026-05-07 12:00 | 45.41720 | 8.28680 | 38010 ft | 441 kts | 339° |
| 2026-05-07 12:00 | 45.47628 | 8.26374 | 38032 ft | 441 kts | 339° |
| 2026-05-07 12:01 | 45.53565 | 8.24050 | 38023 ft | 441 kts | 339° |
| 2026-05-07 12:01 | 45.59479 | 8.21733 | 38023 ft | 442 kts | 339° |
| 2026-05-07 12:02 | 45.65393 | 8.19423 | 38023 ft | 442 kts | 339° |
| 2026-05-07 12:02 | 45.71342 | 8.17075 | 38038 ft | 442 kts | 340° |
| 2026-05-07 12:03 | 45.77252 | 8.14733 | 38026 ft | 442 kts | 340° |
| 2026-05-07 12:03 | 45.83212 | 8.12382 | 38022 ft | 442 kts | 340° |
| 2026-05-07 12:04 | 45.89129 | 8.10043 | 38042 ft | 443 kts | 340° |
| 2026-05-07 12:04 | 45.95049 | 8.07696 | 38026 ft | 442 kts | 340° |
| 2026-05-07 12:05 | 46.00994 | 8.05331 | 38027 ft | 443 kts | 340° |
| 2026-05-07 12:05 | 46.06952 | 8.02945 | 38014 ft | 442 kts | 340° |
| 2026-05-07 12:06 | 46.12911 | 8.00904 | 38032 ft | 445 kts | 344° |
| 2026-05-07 12:06 | 46.19015 | 7.99319 | 38025 ft | 446 kts | 345° |
| 2026-05-07 12:07 | 46.25141 | 7.97765 | 38039 ft | 445 kts | 345° |
| 2026-05-07 12:07 | 46.31211 | 7.96080 | 38041 ft | 444 kts | 345° |
| 2026-05-07 12:08 | 46.37265 | 7.94348 | 38039 ft | 444 kts | 345° |
| 2026-05-07 12:08 | 46.43339 | 7.92618 | 38028 ft | 443 kts | 345° |
| 2026-05-07 12:09 | 46.49362 | 7.90905 | 38022 ft | 443 kts | 345° |
| 2026-05-07 12:09 | 46.55425 | 7.89193 | 38018 ft | 443 kts | 345° |
| 2026-05-07 12:10 | 46.61492 | 7.87475 | 38018 ft | 444 kts | 345° |
| 2026-05-07 12:10 | 46.67552 | 7.85747 | 38026 ft | 444 kts | 345° |
| 2026-05-07 12:11 | 46.73592 | 7.84025 | 38031 ft | 444 kts | 345° |
| 2026-05-07 12:11 | 46.79665 | 7.82277 | 38029 ft | 444 kts | 345° |
| 2026-05-07 12:12 | 46.85722 | 7.80534 | 38025 ft | 444 kts | 345° |
| 2026-05-07 12:12 | 46.91753 | 7.78797 | 38047 ft | 444 kts | 345° |
| 2026-05-07 12:13 | 46.97825 | 7.77042 | 38027 ft | 444 kts | 345° |
| 2026-05-07 12:13 | 47.03867 | 7.75297 | 38022 ft | 444 kts | 345° |
| 2026-05-07 12:14 | 47.09955 | 7.73540 | 38021 ft | 444 kts | 345° |
| 2026-05-07 12:14 | 47.16004 | 7.71779 | 38040 ft | 444 kts | 345° |
| 2026-05-07 12:15 | 47.22099 | 7.70011 | 38033 ft | 445 kts | 345° |
| 2026-05-07 12:15 | 47.28154 | 7.68251 | 38032 ft | 445 kts | 345° |
| 2026-05-07 12:16 | 47.34210 | 7.66475 | 38054 ft | 445 kts | 345° |
| 2026-05-07 12:16 | 47.40306 | 7.64685 | 38061 ft | 445 kts | 345° |
| 2026-05-07 12:17 | 47.46368 | 7.62912 | 38056 ft | 445 kts | 345° |
| 2026-05-07 12:17 | 47.52437 | 7.61124 | 38069 ft | 445 kts | 345° |
| 2026-05-07 12:18 | 47.58530 | 7.59328 | 38062 ft | 445 kts | 345° |
| 2026-05-07 12:18 | 47.64617 | 7.57526 | 38060 ft | 445 kts | 345° |
| 2026-05-07 12:19 | 47.70689 | 7.55723 | 38066 ft | 445 kts | 345° |
| 2026-05-07 12:19 | 47.76544 | 7.53078 | 38066 ft | 439 kts | 333° |
| 2026-05-07 12:20 | 47.82158 | 7.49440 | 38064 ft | 440 kts | 333° |
| 2026-05-07 12:20 | 47.87746 | 7.45829 | 38062 ft | 440 kts | 333° |
| 2026-05-07 12:21 | 47.93362 | 7.42177 | 38059 ft | 439 kts | 333° |
| 2026-05-07 12:21 | 47.98968 | 7.38528 | 38079 ft | 440 kts | 333° |
| 2026-05-07 12:22 | 48.04562 | 7.34889 | 38073 ft | 440 kts | 333° |
| 2026-05-07 12:22 | 48.10192 | 7.31200 | 38069 ft | 440 kts | 333° |
| 2026-05-07 12:23 | 48.15769 | 7.27546 | 38064 ft | 440 kts | 333° |
| 2026-05-07 12:23 | 48.21392 | 7.23858 | 38078 ft | 440 kts | 334° |
| 2026-05-07 12:24 | 48.26974 | 7.20180 | 38076 ft | 440 kts | 333° |
| 2026-05-07 12:24 | 48.32568 | 7.16474 | 38069 ft | 440 kts | 333° |
| 2026-05-07 12:25 | 48.38184 | 7.12763 | 38063 ft | 440 kts | 334° |
| 2026-05-07 12:25 | 48.43780 | 7.09065 | 38074 ft | 440 kts | 334° |
| 2026-05-07 12:26 | 48.49365 | 7.05354 | 38067 ft | 440 kts | 334° |
| 2026-05-07 12:26 | 48.54979 | 7.01612 | 38061 ft | 440 kts | 334° |
| 2026-05-07 12:27 | 48.60578 | 6.97864 | 38053 ft | 440 kts | 333° |
| 2026-05-07 12:27 | 48.66154 | 6.94123 | 38067 ft | 440 kts | 334° |
| 2026-05-07 12:28 | 48.71774 | 6.90352 | 38059 ft | 440 kts | 334° |
| 2026-05-07 12:28 | 48.77353 | 6.86607 | 38062 ft | 440 kts | 334° |
| 2026-05-07 12:29 | 48.82958 | 6.82833 | 38057 ft | 439 kts | 333° |
| 2026-05-07 12:29 | 48.88512 | 6.79070 | 38070 ft | 439 kts | 334° |
| 2026-05-07 12:30 | 48.94120 | 6.75249 | 38058 ft | 439 kts | 333° |
| 2026-05-07 12:30 | 48.99699 | 6.71449 | 38055 ft | 439 kts | 334° |
| 2026-05-07 12:31 | 49.05279 | 6.67663 | 38056 ft | 440 kts | 334° |
| 2026-05-07 12:31 | 49.10810 | 6.63906 | 38056 ft | 440 kts | 334° |
| 2026-05-07 12:32 | 49.16408 | 6.60072 | 38065 ft | 440 kts | 334° |
| 2026-05-07 12:32 | 49.22005 | 6.56218 | 38063 ft | 440 kts | 333° |
| 2026-05-07 12:33 | 49.30376 | 6.50457 | 38061 ft | 440 kts | 334° |
| 2026-05-07 12:33 | 49.35941 | 6.46618 | 38066 ft | 440 kts | 334° |
| 2026-05-07 12:34 | 49.38742 | 6.44676 | 37363 ft | 446 kts | 334° |
| 2026-05-07 12:34 | 49.41582 | 6.42702 | 36071 ft | 454 kts | 334° |
| 2026-05-07 12:34 | 49.44459 | 6.40698 | 35199 ft | 450 kts | 334° |
| 2026-05-07 12:34 | 49.47308 | 6.38716 | 34449 ft | 443 kts | 334° |
| 2026-05-07 12:35 | 49.50109 | 6.36835 | 33695 ft | 436 kts | 335° |
| 2026-05-07 12:35 | 49.52884 | 6.35051 | 32874 ft | 429 kts | 336° |
| 2026-05-07 12:35 | 49.55627 | 6.33323 | 32060 ft | 422 kts | 336° |
| 2026-05-07 12:35 | 49.58299 | 6.31643 | 31288 ft | 416 kts | 336° |
| 2026-05-07 12:36 | 49.60961 | 6.29956 | 30482 ft | 410 kts | 336° |
| 2026-05-07 12:36 | 49.63588 | 6.28272 | 29595 ft | 406 kts | 336° |
| 2026-05-07 12:36 | 49.66167 | 6.26590 | 29045 ft | 393 kts | 335° |
| 2026-05-07 12:36 | 49.68631 | 6.24937 | 28689 ft | 378 kts | 335° |
| 2026-05-07 12:37 | 49.71008 | 6.23313 | 28330 ft | 369 kts | 334° |
| 2026-05-07 12:37 | 49.73311 | 6.21727 | 27955 ft | 366 kts | 334° |
| 2026-05-07 12:37 | 49.75640 | 6.20125 | 27584 ft | 363 kts | 334° |
| 2026-05-07 12:37 | 49.77947 | 6.18546 | 27215 ft | 360 kts | 335° |
| 2026-05-07 12:38 | 49.80236 | 6.16983 | 26840 ft | 357 kts | 335° |
| 2026-05-07 12:38 | 49.82509 | 6.15438 | 26471 ft | 355 kts | 335° |
| 2026-05-07 12:38 | 49.84761 | 6.14008 | 26101 ft | 353 kts | 340° |
| 2026-05-07 12:38 | 49.87149 | 6.13156 | 25713 ft | 353 kts | 351° |
| 2026-05-07 12:39 | 49.89621 | 6.12976 | 25324 ft | 353 kts | 359° |
| 2026-05-07 12:39 | 49.92041 | 6.12995 | 24929 ft | 351 kts | 359° |
| 2026-05-07 12:39 | 49.94483 | 6.13013 | 24526 ft | 350 kts | 358° |
| 2026-05-07 12:39 | 49.96921 | 6.13033 | 24123 ft | 350 kts | 358° |
| 2026-05-07 12:40 | 49.99366 | 6.13047 | 23710 ft | 349 kts | 358° |
| 2026-05-07 12:40 | 50.01784 | 6.13059 | 23261 ft | 347 kts | 358° |
| 2026-05-07 12:40 | 50.04169 | 6.13070 | 22858 ft | 344 kts | 358° |
| 2026-05-07 12:40 | 50.06565 | 6.13079 | 22458 ft | 341 kts | 358° |
| 2026-05-07 12:41 | 50.08929 | 6.13096 | 22064 ft | 339 kts | 359° |
| 2026-05-07 12:41 | 50.11270 | 6.13113 | 21659 ft | 337 kts | 359° |
| 2026-05-07 12:41 | 50.13615 | 6.13128 | 21263 ft | 334 kts | 359° |
| 2026-05-07 12:41 | 50.15939 | 6.13141 | 20868 ft | 332 kts | 359° |
| 2026-05-07 12:42 | 50.18217 | 6.13155 | 20476 ft | 331 kts | 359° |
| 2026-05-07 12:42 | 50.20530 | 6.13171 | 20080 ft | 329 kts | 359° |
| 2026-05-07 12:42 | 50.22799 | 6.13184 | 19691 ft | 327 kts | 359° |
| 2026-05-07 12:42 | 50.25079 | 6.13193 | 19301 ft | 326 kts | 359° |
| 2026-05-07 12:43 | 50.27343 | 6.13204 | 18923 ft | 325 kts | 358° |
| 2026-05-07 12:43 | 50.29599 | 6.13239 | 18538 ft | 324 kts | 1° |
| 2026-05-07 12:43 | 50.31844 | 6.13694 | 18132 ft | 324 kts | 8° |
| 2026-05-07 12:43 | 50.34065 | 6.14258 | 17734 ft | 322 kts | 8° |
| 2026-05-07 12:44 | 50.36269 | 6.14817 | 17350 ft | 319 kts | 8° |
| 2026-05-07 12:44 | 50.38433 | 6.15365 | 16980 ft | 317 kts | 8° |
| 2026-05-07 12:44 | 50.40615 | 6.15915 | 16605 ft | 315 kts | 8° |
| 2026-05-07 12:44 | 50.42767 | 6.16455 | 16234 ft | 313 kts | 7° |
| 2026-05-07 12:45 | 50.44907 | 6.16992 | 15867 ft | 311 kts | 8° |
| 2026-05-07 12:45 | 50.47037 | 6.17524 | 15500 ft | 309 kts | 7° |
| 2026-05-07 12:45 | 50.49162 | 6.18058 | 15137 ft | 308 kts | 8° |
| 2026-05-07 12:45 | 50.51250 | 6.18587 | 14778 ft | 306 kts | 7° |
| 2026-05-07 12:46 | 50.53352 | 6.19122 | 14413 ft | 305 kts | 7° |
| 2026-05-07 12:46 | 50.55451 | 6.19657 | 14045 ft | 304 kts | 7° |
| 2026-05-07 12:46 | 50.57531 | 6.20183 | 13676 ft | 303 kts | 6° |
| 2026-05-07 12:46 | 50.58908 | 6.20530 | 13422 ft | 302 kts | 7° |
| 2026-05-07 12:47 | 50.60985 | 6.21056 | 13058 ft | 300 kts | 8° |
| 2026-05-07 12:47 | 50.63713 | 6.21750 | 12583 ft | 297 kts | 8° |
| 2026-05-07 12:47 | 50.65090 | 6.22105 | 12344 ft | 296 kts | 8° |
| 2026-05-07 12:47 | 50.67098 | 6.22626 | 11994 ft | 294 kts | 8° |
| 2026-05-07 12:48 | 50.69110 | 6.23148 | 11645 ft | 292 kts | 8° |
| 2026-05-07 12:48 | 50.71110 | 6.23662 | 11300 ft | 290 kts | 8° |
| 2026-05-07 12:48 | 50.73048 | 6.24452 | 10945 ft | 290 kts | 20° |
| 2026-05-07 12:48 | 50.74917 | 6.25659 | 10594 ft | 288 kts | 21° |
| 2026-05-07 12:49 | 50.76777 | 6.26859 | 10244 ft | 287 kts | 21° |
| 2026-05-07 12:49 | 50.78605 | 6.28037 | 9886 ft | 286 kts | 21° |
| 2026-05-07 12:49 | 50.80446 | 6.29225 | 9519 ft | 284 kts | 21° |
| 2026-05-07 12:49 | 50.82277 | 6.30408 | 9131 ft | 283 kts | 21° |
| 2026-05-07 12:50 | 50.84076 | 6.31574 | 8779 ft | 281 kts | 21° |
| 2026-05-07 12:50 | 50.85893 | 6.32753 | 8433 ft | 279 kts | 21° |
| 2026-05-07 12:50 | 50.87677 | 6.33912 | 8091 ft | 277 kts | 21° |
| 2026-05-07 12:50 | 50.89442 | 6.35055 | 7752 ft | 275 kts | 21° |
| 2026-05-07 12:51 | 50.91228 | 6.36209 | 7409 ft | 275 kts | 21° |
| 2026-05-07 12:51 | 50.92996 | 6.37357 | 7073 ft | 274 kts | 21° |
| 2026-05-07 12:51 | 50.94756 | 6.38507 | 6727 ft | 273 kts | 21° |
| 2026-05-07 12:51 | 50.96491 | 6.39645 | 6395 ft | 272 kts | 21° |
| 2026-05-07 12:52 | 50.98241 | 6.40790 | 6048 ft | 270 kts | 21° |
| 2026-05-07 12:52 | 50.99981 | 6.41925 | 5708 ft | 269 kts | 21° |
| 2026-05-07 12:52 | 51.01685 | 6.43034 | 5378 ft | 267 kts | 21° |
| 2026-05-07 12:52 | 51.03398 | 6.44151 | 5060 ft | 264 kts | 21° |
| 2026-05-07 12:53 | 51.05089 | 6.45259 | 4715 ft | 262 kts | 21° |
| 2026-05-07 12:53 | 51.06764 | 6.46361 | 4352 ft | 257 kts | 21° |
| 2026-05-07 12:53 | 51.08390 | 6.47428 | 4116 ft | 246 kts | 22° |
| 2026-05-07 12:53 | 51.09924 | 6.48431 | 4045 ft | 229 kts | 21° |
| 2026-05-07 12:54 | 51.11340 | 6.49361 | 3955 ft | 213 kts | 21° |
| 2026-05-07 12:54 | 51.12674 | 6.50234 | 3869 ft | 204 kts | 21° |
| 2026-05-07 12:54 | 51.13977 | 6.51088 | 3781 ft | 201 kts | 21° |
| 2026-05-07 12:54 | 51.15258 | 6.51927 | 3692 ft | 200 kts | 22° |
| 2026-05-07 12:55 | 51.16553 | 6.52777 | 3604 ft | 194 kts | 21° |
| 2026-05-07 12:55 | 51.17666 | 6.53834 | 3475 ft | 186 kts | 41° |
| 2026-05-07 12:55 | 51.18490 | 6.55426 | 3269 ft | 185 kts | 50° |
| 2026-05-07 12:55 | 51.19266 | 6.57043 | 3016 ft | 183 kts | 51° |
| 2026-05-07 12:56 | 51.20031 | 6.58637 | 2796 ft | 182 kts | 50° |
| 2026-05-07 12:56 | 51.20800 | 6.60231 | 2556 ft | 180 kts | 51° |
| 2026-05-07 12:56 | 51.21562 | 6.61817 | 2354 ft | 176 kts | 51° |
| 2026-05-07 12:56 | 51.22288 | 6.63343 | 2140 ft | 170 kts | 51° |
| 2026-05-07 12:57 | 51.23002 | 6.64823 | 1868 ft | 167 kts | 51° |
| 2026-05-07 12:57 | 51.23696 | 6.66277 | 1592 ft | 160 kts | 50° |
| 2026-05-07 12:57 | 51.24330 | 6.67602 | 1388 ft | 140 kts | 50° |
| 2026-05-07 12:57 | 51.24892 | 6.68774 | 1154 ft | 128 kts | 49° |
| 2026-05-07 12:58 | 51.25423 | 6.69890 | 970 ft | 126 kts | 49° |
| 2026-05-07 12:58 | 51.25949 | 6.71002 | 819 ft | 126 kts | 50° |
| 2026-05-07 12:58 | 51.26482 | 6.72113 | 674 ft | 125 kts | 48° |
| 2026-05-07 12:58 | 51.27015 | 6.73228 | 536 ft | 127 kts | 48° |
| 2026-05-07 12:59 | 51.27559 | 6.74364 | 362 ft | 129 kts | 47° |
| 2026-05-07 12:59 | 51.28104 | 6.75502 | 194 ft | 132 kts | 48° |
| 2026-05-07 12:59 | 51.28626 | 6.76597 | 127 ft | 108 kts | 53° |
| 2026-05-07 12:59 | 51.28972 | 6.77323 | 127 ft | 43 kts | 53° |
| 2026-05-07 13:00 | 51.29029 | 6.77488 | 126 ft | 8 kts | 86° |
| 2026-05-07 13:00 | 51.28995 | 6.77579 | 127 ft | 11 kts | 141° |
| 2026-05-07 13:00 | 51.28931 | 6.77654 | 127 ft | 13 kts | 140° |
| 2026-05-07 13:00 | 51.28870 | 6.77733 | 127 ft | 8 kts | 141° |
| 2026-05-07 13:01 | 51.28817 | 6.77797 | 125 ft | 11 kts | 143° |
| 2026-05-07 13:01 | 51.28763 | 6.77862 | 128 ft | 7 kts | 143° |
| 2026-05-07 13:01 | 51.28717 | 6.77837 | 126 ft | 9 kts | 226° |
| 2026-05-07 13:01 | 51.28674 | 6.77750 | 129 ft | 11 kts | 233° |
| 2026-05-07 13:02 | 51.28665 | 6.77645 | 128 ft | 9 kts | 273° |
| 2026-05-07 13:02 | 51.28635 | 6.77554 | 126 ft | 10 kts | 231° |
| 2026-05-07 13:02 | 51.28586 | 6.77448 | 127 ft | 14 kts | 233° |
| 2026-05-07 13:02 | 51.28526 | 6.77319 | 129 ft | 15 kts | 236° |
| 2026-05-07 13:03 | 51.28468 | 6.77192 | 127 ft | 15 kts | 232° |
| 2026-05-07 13:03 | 51.28435 | 6.77132 | 127 ft | 0 kts | 212° |
| 2026-05-07 13:03 | 51.28427 | 6.77133 | 128 ft | 4 kts | 173° |
| 2026-05-07 13:03 | 51.28397 | 6.77168 | 128 ft | 5 kts | 142° |
| 2026-05-07 13:04 | 51.28382 | 6.77186 | 130 ft | 0 kts | 143° |